Time;durP1;ratioP1;P1;durP2;ratioP2;P2;SDS_P1;SDS_P2;PMS_P1;PMS_P2;Temp;Humidity;BMP_temperature;BMP_pressure;BME280_temperature;BME280_humidity;BME280_pressure;Samples;Min_cycle;Max_cycle;Signal;HPM_P1;HPM_P2
2021/04/22 00:00:07;;;;;;;20.65;3.30;;;3.70;71.70;;;;;;5044551;28;20033;-76
2021/04/22 00:02:33;;;;;;;17.35;3.67;;;3.70;72.40;;;;;;5028799;28;20036;-74
2021/04/22 00:04:59;;;;;;;17.42;3.28;;;3.70;72.10;;;;;;5042211;28;20025;-74
2021/04/22 00:07:24;;;;;;;20.50;3.65;;;3.50;72.50;;;;;;5027366;28;20025;-75
2021/04/22 00:09:50;;;;;;;21.10;4.05;;;3.50;73.50;;;;;;5028223;28;21540;-75
2021/04/22 00:12:16;;;;;;;17.80;3.47;;;3.50;73.30;;;;;;5031483;28;20031;-76
2021/04/22 00:14:41;;;;;;;20.23;3.78;;;3.40;73.20;;;;;;5026329;28;20028;-75
2021/04/22 00:17:08;;;;;;;13.13;2.78;;;3.50;73.80;;;;;;5064882;28;20033;-76
2021/04/22 00:19:34;;;;;;;22.83;4.47;;;3.40;74.00;;;;;;5026836;28;20120;-75
2021/04/22 00:21:59;;;;;;;20.05;3.72;;;3.30;74.60;;;;;;5014109;28;20179;-75
2021/04/22 00:24:25;;;;;;;20.77;3.70;;;3.40;74.60;;;;;;5045382;28;20082;-76
2021/04/22 00:26:50;;;;;;;19.88;3.33;;;3.30;74.80;;;;;;5043095;28;20037;-75
2021/04/22 00:29:16;;;;;;;15.00;4.38;;;3.20;75.60;;;;;;5037649;28;20029;-75
2021/04/22 00:31:41;;;;;;;21.75;3.42;;;3.10;76.00;;;;;;5028503;28;20024;-75
2021/04/22 00:34:07;;;;;;;15.75;3.92;;;3.20;76.90;;;;;;5045890;28;20613;-75
2021/04/22 00:36:32;;;;;;;19.83;3.28;;;3.20;76.50;;;;;;5009629;28;20029;-75
2021/04/22 00:38:58;;;;;;;20.92;3.75;;;3.20;76.80;;;;;;5030752;28;20132;-74
2021/04/22 00:41:24;;;;;;;18.40;3.85;;;3.10;77.20;;;;;;5045796;28;20403;-75
2021/04/22 00:43:52;;;;;;;14.05;3.35;;;3.00;77.20;;;;;;5015249;28;20036;-74
2021/04/22 00:46:17;;;;;;;21.80;4.03;;;3.00;76.90;;;;;;5030047;28;20553;-75
2021/04/22 00:48:43;;;;;;;10.20;3.00;;;2.90;78.30;;;;;;5027314;28;20029;-75
2021/04/22 00:51:08;;;;;;;19.38;3.25;;;3.00;78.30;;;;;;5026516;28;20383;-75
2021/04/22 00:53:34;;;;;;;16.17;3.55;;;3.00;79.00;;;;;;5025560;28;20245;-74
2021/04/22 00:55:59;;;;;;;20.60;3.90;;;3.10;77.60;;;;;;5013987;28;20056;-75
2021/04/22 00:58:25;;;;;;;15.98;3.22;;;3.00;78.90;;;;;;5028847;28;20052;-74
2021/04/22 01:00:55;;;;;;;19.45;3.38;;;2.80;78.20;;;;;;5024979;28;20409;-74
2021/04/22 01:03:21;;;;;;;20.77;3.17;;;2.80;79.70;;;;;;5044759;28;20120;-75
2021/04/22 01:05:49;;;;;;;15.40;3.13;;;2.80;80.50;;;;;;5026004;28;20116;-74
2021/04/22 01:08:14;;;;;;;20.48;4.10;;;2.90;80.30;;;;;;5022308;28;20232;-74
2021/04/22 01:10:40;;;;;;;23.02;4.00;;;2.80;78.90;;;;;;5029306;28;20508;-75
2021/04/22 01:13:06;;;;;;;14.25;3.38;;;2.60;79.40;;;;;;5027604;28;20140;-74
2021/04/22 01:15:32;;;;;;;21.73;3.60;;;2.60;79.60;;;;;;5048712;28;20055;-74
2021/04/22 01:17:57;;;;;;;28.10;4.15;;;2.40;79.70;;;;;;5017114;28;20471;-74
2021/04/22 01:20:49;;;;;;;16.92;3.70;;;2.30;80.60;;;;;;5031931;28;20029;-74
2021/04/22 01:23:14;;;;;;;15.10;3.70;;;2.40;81.80;;;;;;5031705;28;20024;-75
2021/04/22 01:25:44;;;;;;;17.40;3.88;;;2.50;80.80;;;;;;5030107;28;20040;-74
2021/04/22 01:28:12;;;;;;;25.90;4.65;;;2.50;82.30;;;;;;5045622;28;20044;-76
2021/04/22 01:30:38;;;;;;;22.92;3.40;;;2.40;80.90;;;;;;5031465;28;20434;-74
2021/04/22 01:33:04;;;;;;;15.85;3.50;;;2.40;82.10;;;;;;5050057;28;20043;-75
2021/04/22 01:35:34;;;;;;;17.13;3.80;;;2.20;80.90;;;;;;5016662;28;20115;-74
2021/04/22 01:38:00;;;;;;;20.20;3.67;;;2.10;81.30;;;;;;5032457;28;20516;-75
2021/04/22 01:40:25;;;;;;;16.60;4.15;;;2.00;81.40;;;;;;5049936;28;20076;-75
2021/04/22 01:42:51;;;;;;;20.08;4.35;;;2.20;82.40;;;;;;5016886;28;20409;-75
2021/04/22 01:45:17;;;;;;;19.27;4.15;;;2.00;81.90;;;;;;5032585;28;20032;-74
2021/04/22 01:47:43;;;;;;;26.25;4.63;;;2.00;83.60;;;;;;5047997;28;20032;-74
2021/04/22 01:50:10;;;;;;;16.73;4.20;;;2.00;82.60;;;;;;5032689;28;20032;-75
2021/04/22 01:52:35;;;;;;;23.85;3.60;;;2.00;83.00;;;;;;5045495;28;20488;-75
2021/04/22 01:55:01;;;;;;;19.23;4.35;;;2.10;84.40;;;;;;5046335;28;20021;-75
2021/04/22 01:57:27;;;;;;;16.92;4.25;;;2.20;84.20;;;;;;5046525;28;20524;-74
2021/04/22 01:59:52;;;;;;;19.08;3.63;;;2.20;84.40;;;;;;5034079;28;20033;-76
2021/04/22 02:02:18;;;;;;;18.80;3.75;;;2.20;84.30;;;;;;5051504;28;20031;-74
2021/04/22 02:04:44;;;;;;;15.23;3.72;;;2.10;84.60;;;;;;5043937;28;20028;-75
2021/04/22 02:07:11;;;;;;;21.17;3.47;;;2.00;83.30;;;;;;5031589;28;20234;-75
2021/04/22 02:09:37;;;;;;;31.13;3.83;;;1.90;83.90;;;;;;5032926;28;20368;-75
2021/04/22 02:12:03;;;;;;;20.17;4.00;;;1.90;84.40;;;;;;5047808;28;20032;-74
2021/04/22 02:14:28;;;;;;;16.92;3.40;;;1.80;83.70;;;;;;5013071;28;20028;-74
2021/04/22 02:16:54;;;;;;;14.98;3.58;;;1.90;85.10;;;;;;5049099;28;20088;-74
2021/04/22 02:19:19;;;;;;;21.02;3.28;;;1.90;84.30;;;;;;5051068;28;20044;-74
2021/04/22 02:21:45;;;;;;;17.48;3.70;;;1.80;84.20;;;;;;5015047;28;20617;-74
2021/04/22 02:24:12;;;;;;;23.70;3.72;;;1.70;85.10;;;;;;5031757;28;20459;-74
2021/04/22 02:26:38;;;;;;;22.88;4.03;;;1.80;85.10;;;;;;5067792;28;20736;-76
2021/04/22 02:29:03;;;;;;;22.42;4.78;;;1.80;85.50;;;;;;5027441;28;20113;-76
2021/04/22 02:31:29;;;;;;;19.02;4.28;;;1.90;85.70;;;;;;5047601;28;20082;-76
2021/04/22 02:33:55;;;;;;;19.63;4.05;;;1.80;86.10;;;;;;5031769;28;20488;-76
2021/04/22 02:36:20;;;;;;;14.43;3.17;;;1.70;84.50;;;;;;5033541;28;20029;-76
2021/04/22 02:38:46;;;;;;;23.95;4.05;;;1.70;86.10;;;;;;5041784;28;20036;-77
2021/04/22 02:41:12;;;;;;;29.60;4.35;;;1.60;86.50;;;;;;5045241;28;20070;-77
2021/04/22 02:43:37;;;;;;;17.05;3.70;;;1.80;85.80;;;;;;5032431;28;20057;-76
2021/04/22 02:46:03;;;;;;;20.00;3.63;;;1.80;87.00;;;;;;5044673;28;20044;-76
2021/04/22 02:48:28;;;;;;;16.63;3.42;;;1.80;86.10;;;;;;5026111;28;20029;-77
2021/04/22 02:50:55;;;;;;;18.73;3.45;;;1.90;88.10;;;;;;5032815;28;20033;-76
2021/04/22 02:53:21;;;;;;;22.33;3.47;;;1.90;87.70;;;;;;5047886;28;20109;-76
2021/04/22 02:55:47;;;;;;;17.98;3.90;;;2.10;86.80;;;;;;5026744;28;20062;-76
2021/04/22 02:58:13;;;;;;;20.80;4.03;;;2.20;85.50;;;;;;5040299;28;20082;-76
2021/04/22 03:00:39;;;;;;;15.90;3.30;;;2.20;86.80;;;;;;5018165;28;20032;-76
2021/04/22 03:03:05;;;;;;;25.42;3.90;;;2.10;86.60;;;;;;5014874;28;20055;-77
2021/04/22 03:05:30;;;;;;;20.73;4.15;;;2.00;86.40;;;;;;5026191;28;20029;-76
2021/04/22 03:07:56;;;;;;;12.82;2.95;;;2.20;85.70;;;;;;5027064;28;20029;-77
2021/04/22 03:10:22;;;;;;;20.50;4.53;;;2.20;85.30;;;;;;5028889;28;20471;-77
2021/04/22 03:12:48;;;;;;;20.45;4.32;;;2.00;85.70;;;;;;5025997;28;20110;-77
2021/04/22 03:15:14;;;;;;;20.17;4.30;;;1.60;84.90;;;;;;5048725;28;20046;-76
2021/04/22 03:17:39;;;;;;;18.98;4.13;;;1.40;85.70;;;;;;5042217;28;20037;-76
2021/04/22 03:20:06;;;;;;;21.45;4.13;;;1.50;87.30;;;;;;5028141;28;20488;-76
2021/04/22 03:22:32;;;;;;;21.00;5.22;;;1.40;86.40;;;;;;5031824;28;20123;-77
2021/04/22 03:24:59;;;;;;;18.08;4.07;;;1.40;86.70;;;;;;5016240;28;20139;-76
2021/04/22 03:27:25;;;;;;;22.85;4.72;;;1.30;84.90;;;;;;5026588;28;20118;-77
2021/04/22 03:29:50;;;;;;;29.55;5.10;;;1.20;86.90;;;;;;5007930;28;20055;-76
2021/04/22 03:32:16;;;;;;;30.02;4.40;;;1.20;86.30;;;;;;5046547;28;20101;-77
2021/04/22 03:34:41;;;;;;;17.15;4.50;;;1.10;87.10;;;;;;5031704;28;20514;-76
2021/04/22 03:37:07;;;;;;;22.65;4.97;;;1.10;86.60;;;;;;5031805;28;20485;-76
2021/04/22 03:39:32;;;;;;;24.77;4.38;;;1.00;87.50;;;;;;5011495;28;20029;-77
2021/04/22 03:41:58;;;;;;;23.52;5.10;;;1.10;87.90;;;;;;5033450;28;20032;-76
2021/04/22 03:44:23;;;;;;;17.50;4.50;;;1.20;87.20;;;;;;5038280;28;20052;-76
2021/04/22 03:46:49;;;;;;;25.48;4.85;;;1.10;87.90;;;;;;5047171;28;20055;-76
2021/04/22 03:49:14;;;;;;;28.58;4.75;;;1.40;89.90;;;;;;5049294;28;20055;-77
2021/04/22 03:51:40;;;;;;;22.45;5.47;;;1.70;88.40;;;;;;5043809;28;20028;-76
2021/04/22 03:54:06;;;;;;;19.48;4.93;;;1.70;88.20;;;;;;5027918;28;20068;-76
2021/04/22 03:56:32;;;;;;;24.38;4.60;;;1.60;85.70;;;;;;5008411;28;20033;-76
2021/04/22 03:58:57;;;;;;;20.92;5.13;;;1.60;88.10;;;;;;5015197;28;20484;-76
2021/04/22 04:01:23;;;;;;;22.02;4.80;;;1.70;86.90;;;;;;5043302;28;20056;-77
2021/04/22 04:03:48;;;;;;;24.75;4.72;;;1.40;88.30;;;;;;5031287;28;20103;-77
2021/04/22 04:06:14;;;;;;;18.75;4.65;;;1.40;89.30;;;;;;5039289;28;20028;-76
2021/04/22 04:08:39;;;;;;;25.35;4.88;;;1.50;88.50;;;;;;5029926;28;20480;-77
2021/04/22 04:11:05;;;;;;;7.78;3.40;;;1.60;87.70;;;;;;5025310;28;20032;-76
2021/04/22 04:13:30;;;;;;;18.30;4.57;;;1.80;86.60;;;;;;5015274;28;20032;-76
2021/04/22 04:15:56;;;;;;;16.48;4.75;;;1.80;86.30;;;;;;5030082;28;20082;-76
2021/04/22 04:18:21;;;;;;;25.50;5.80;;;1.70;87.00;;;;;;5041468;28;20556;-75
2021/04/22 04:20:47;;;;;;;23.17;4.57;;;1.70;87.20;;;;;;5037527;28;20024;-76
2021/04/22 04:23:13;;;;;;;25.10;5.15;;;1.60;87.20;;;;;;5030602;28;20066;-75
2021/04/22 04:25:38;;;;;;;19.63;4.57;;;1.60;86.40;;;;;;5022091;28;20820;-76
2021/04/22 04:28:04;;;;;;;28.92;5.07;;;1.60;86.70;;;;;;5031529;28;20043;-76
2021/04/22 04:30:29;;;;;;;30.00;5.30;;;1.50;86.00;;;;;;5031872;28;20059;-76
2021/04/22 04:32:55;;;;;;;24.27;5.45;;;1.50;87.60;;;;;;5042689;28;20044;-76
2021/04/22 04:35:21;;;;;;;21.50;5.63;;;1.40;88.60;;;;;;5044363;28;20392;-76
2021/04/22 04:37:46;;;;;;;23.30;5.13;;;1.40;88.20;;;;;;5013879;28;20098;-76
2021/04/22 04:40:12;;;;;;;26.35;5.93;;;1.30;88.90;;;;;;5013129;28;20032;-76
2021/04/22 04:42:38;;;;;;;23.63;6.00;;;1.40;88.10;;;;;;5043402;28;20027;-76
2021/04/22 04:45:05;;;;;;;25.00;5.88;;;1.30;88.80;;;;;;5034278;28;20027;-76
2021/04/22 04:47:30;;;;;;;15.45;5.38;;;1.40;87.70;;;;;;5043529;28;20025;-76
2021/04/22 04:49:56;;;;;;;22.02;5.75;;;1.50;87.60;;;;;;5050905;28;20063;-76
2021/04/22 04:52:21;;;;;;;22.92;5.40;;;1.50;87.00;;;;;;5026116;28;20055;-76
2021/04/22 04:54:47;;;;;;;13.77;3.45;;;1.60;86.10;;;;;;5042540;28;20440;-76
2021/04/22 04:57:12;;;;;;;17.55;4.50;;;1.60;85.70;;;;;;5032947;28;20728;-76
2021/04/22 04:59:38;;;;;;;20.60;5.13;;;1.70;84.60;;;;;;5011761;28;20040;-76
2021/04/22 05:02:03;;;;;;;27.20;6.78;;;1.60;86.70;;;;;;5038042;28;20499;-76
2021/04/22 05:04:29;;;;;;;10.20;3.13;;;1.70;88.00;;;;;;5018010;28;20040;-76
2021/04/22 05:06:55;;;;;;;18.00;4.80;;;1.90;85.10;;;;;;5040412;28;20028;-76
2021/04/22 05:09:20;;;;;;;11.52;3.95;;;2.10;85.30;;;;;;5034357;28;20462;-76
2021/04/22 05:11:46;;;;;;;14.68;4.65;;;2.00;84.70;;;;;;5024420;28;20041;-77
2021/04/22 05:14:11;;;;;;;22.20;5.75;;;2.00;86.20;;;;;;5017905;28;20423;-77
2021/04/22 05:16:37;;;;;;;16.95;4.93;;;2.20;83.60;;;;;;5044571;28;20036;-77
2021/04/22 05:19:02;;;;;;;19.88;5.57;;;2.10;86.20;;;;;;5010316;28;20065;-78
2021/04/22 05:21:28;;;;;;;12.15;3.75;;;2.10;86.30;;;;;;5031587;28;20567;-77
2021/04/22 05:23:53;;;;;;;14.13;3.60;;;2.20;85.30;;;;;;5029126;28;20028;-77
2021/04/22 05:26:20;;;;;;;25.08;6.05;;;2.30;84.90;;;;;;5068109;28;20055;-78
2021/04/22 05:28:46;;;;;;;18.90;5.88;;;2.40;86.40;;;;;;5031741;28;20054;-78
2021/04/22 05:31:11;;;;;;;21.27;5.45;;;2.30;87.80;;;;;;5043229;28;20485;-78
2021/04/22 05:33:37;;;;;;;28.75;5.75;;;2.40;88.20;;;;;;5049543;28;20399;-77
2021/04/22 05:36:03;;;;;;;18.73;6.47;;;2.60;87.10;;;;;;5025968;28;20066;-78
2021/04/22 05:38:29;;;;;;;28.58;7.05;;;2.70;86.80;;;;;;5034054;28;20098;-77
2021/04/22 05:40:54;;;;;;;28.45;6.53;;;2.80;87.40;;;;;;5015062;28;20275;-78
2021/04/22 05:43:20;;;;;;;24.17;5.97;;;2.90;87.60;;;;;;5049396;28;20055;-77
2021/04/22 05:45:45;;;;;;;28.73;6.78;;;3.00;87.00;;;;;;5027592;28;20109;-78
2021/04/22 05:48:11;;;;;;;17.15;5.75;;;3.00;87.80;;;;;;5026255;28;20055;-78
2021/04/22 05:50:37;;;;;;;26.13;6.32;;;3.10;89.50;;;;;;5016971;28;20044;-77
2021/04/22 05:53:02;;;;;;;24.10;6.18;;;3.20;88.80;;;;;;5024271;28;20041;-78
2021/04/22 05:55:28;;;;;;;25.40;5.30;;;3.30;87.50;;;;;;5025588;28;20033;-78
2021/04/22 05:57:55;;;;;;;32.15;7.20;;;3.30;89.40;;;;;;5047892;28;20195;-78
2021/04/22 06:00:21;;;;;;;29.02;6.07;;;3.40;90.20;;;;;;5051818;28;20481;-77
2021/04/22 06:02:46;;;;;;;22.73;5.65;;;3.40;90.30;;;;;;5048093;28;20151;-77
2021/04/22 06:05:13;;;;;;;24.77;5.38;;;3.50;90.10;;;;;;5002768;28;20024;-77
2021/04/22 06:07:38;;;;;;;23.83;6.32;;;3.70;90.30;;;;;;5044335;28;20025;-77
2021/04/22 06:10:05;;;;;;;19.63;4.85;;;3.80;89.30;;;;;;5033762;28;20033;-77
2021/04/22 06:12:30;;;;;;;28.70;5.78;;;3.90;89.20;;;;;;5028160;28;20035;-78
2021/04/22 06:14:56;;;;;;;19.67;5.28;;;4.10;89.30;;;;;;5037084;28;20032;-77
2021/04/22 06:17:21;;;;;;;16.55;5.78;;;4.20;89.90;;;;;;5030608;28;20028;-77
2021/04/22 06:19:47;;;;;;;27.85;6.47;;;4.30;89.60;;;;;;5029002;28;20056;-77
2021/04/22 06:22:12;;;;;;;27.67;6.15;;;4.50;89.70;;;;;;5025642;28;20119;-77
2021/04/22 06:24:39;;;;;;;27.50;5.78;;;4.60;89.30;;;;;;5010840;28;20025;-77
2021/04/22 06:27:05;;;;;;;16.40;5.93;;;4.70;89.60;;;;;;5029285;28;20025;-77
2021/04/22 06:29:30;;;;;;;20.58;5.95;;;4.90;89.20;;;;;;5028850;28;20085;-77
2021/04/22 06:31:56;;;;;;;27.25;6.07;;;5.10;88.20;;;;;;5029577;28;20134;-78
2021/04/22 06:34:22;;;;;;;16.85;5.15;;;5.20;88.20;;;;;;5059173;28;20033;-77
2021/04/22 06:36:49;;;;;;;27.60;5.82;;;5.30;87.40;;;;;;5029530;28;20417;-77
2021/04/22 06:39:14;;;;;;;20.27;5.28;;;5.50;87.70;;;;;;5041691;28;20441;-77
2021/04/22 06:41:40;;;;;;;21.52;4.90;;;5.60;87.00;;;;;;5029966;28;20029;-77
2021/04/22 06:44:05;;;;;;;25.20;5.18;;;5.80;86.40;;;;;;5014906;28;20087;-77
2021/04/22 06:46:32;;;;;;;27.05;5.20;;;5.90;85.80;;;;;;5024689;28;20399;-77
2021/04/22 06:48:58;;;;;;;29.60;5.53;;;6.00;85.30;;;;;;5043504;28;20519;-77
2021/04/22 06:51:23;;;;;;;16.42;4.53;;;6.10;86.00;;;;;;5047787;28;20132;-75
2021/04/22 06:53:49;;;;;;;23.50;5.07;;;6.20;85.10;;;;;;5030773;28;20041;-76
2021/04/22 06:56:14;;;;;;;21.15;4.80;;;6.30;84.70;;;;;;5039366;28;20032;-76
2021/04/22 06:58:40;;;;;;;18.85;4.57;;;6.40;84.40;;;;;;5047232;28;20032;-77
2021/04/22 07:01:05;;;;;;;18.05;4.07;;;6.60;83.10;;;;;;5013378;28;20388;-77
2021/04/22 07:03:31;;;;;;;16.75;4.68;;;6.70;82.20;;;;;;5029629;28;20186;-76
2021/04/22 07:05:56;;;;;;;18.25;3.45;;;6.80;81.00;;;;;;5024577;28;20060;-77
2021/04/22 07:08:22;;;;;;;17.83;3.55;;;6.90;81.30;;;;;;5027111;28;20039;-76
2021/04/22 07:10:48;;;;;;;12.40;3.70;;;7.00;82.60;;;;;;5038667;28;20035;-76
2021/04/22 07:13:13;;;;;;;17.60;3.95;;;7.10;82.20;;;;;;5014424;28;20507;-76
2021/04/22 07:15:39;;;;;;;14.02;3.67;;;7.20;81.60;;;;;;5026737;28;20059;-76
2021/04/22 07:18:06;;;;;;;19.20;3.70;;;7.30;80.00;;;;;;5031646;28;20028;-76
2021/04/22 07:20:31;;;;;;;14.65;3.40;;;7.40;80.00;;;;;;5024367;28;21579;-77
2021/04/22 07:22:58;;;;;;;13.23;3.40;;;7.60;79.20;;;;;;5038235;28;20098;-76
2021/04/22 07:25:26;;;;;;;17.30;3.35;;;7.80;79.70;;;;;;5026619;28;20032;-77
2021/04/22 07:27:51;;;;;;;13.00;3.42;;;7.90;77.80;;;;;;5030944;28;20044;-77
2021/04/22 07:30:18;;;;;;;12.95;3.17;;;8.10;76.30;;;;;;5045913;28;20391;-77
2021/04/22 07:32:44;;;;;;;13.95;3.90;;;8.20;76.20;;;;;;5024647;28;20032;-76
2021/04/22 07:35:10;;;;;;;24.98;3.60;;;8.30;75.10;;;;;;5048145;28;20089;-77
2021/04/22 07:37:37;;;;;;;13.48;3.50;;;8.40;75.80;;;;;;5022557;28;20028;-77
2021/04/22 07:40:03;;;;;;;13.57;3.17;;;8.50;73.50;;;;;;5031729;28;20063;-77
2021/04/22 07:42:29;;;;;;;9.52;2.80;;;8.60;74.10;;;;;;5029065;28;20499;-76
2021/04/22 07:44:55;;;;;;;16.23;3.40;;;8.90;73.20;;;;;;5027190;28;20035;-76
2021/04/22 07:47:20;;;;;;;7.70;2.05;;;9.10;70.70;;;;;;5029555;28;20441;-77
2021/04/22 07:49:46;;;;;;;13.77;2.80;;;9.20;68.50;;;;;;5014432;28;20025;-76
2021/04/22 07:52:11;;;;;;;14.05;3.47;;;9.30;69.50;;;;;;5012903;28;20093;-77
2021/04/22 07:54:37;;;;;;;10.68;3.65;;;9.40;68.60;;;;;;5029884;28;20039;-76
2021/04/22 07:57:04;;;;;;;13.60;3.15;;;9.60;68.70;;;;;;5024555;28;20043;-76
2021/04/22 07:59:29;;;;;;;11.30;3.05;;;9.70;69.40;;;;;;5014057;28;20051;-77
2021/04/22 08:01:55;;;;;;;11.02;3.30;;;9.90;66.60;;;;;;5028953;28;20025;-77
2021/04/22 08:04:20;;;;;;;9.82;3.15;;;10.00;67.90;;;;;;5030659;28;20036;-76
2021/04/22 08:06:46;;;;;;;14.98;3.53;;;10.10;64.40;;;;;;5038500;28;20033;-76
2021/04/22 08:09:12;;;;;;;12.38;2.38;;;10.10;64.00;;;;;;5025285;28;20028;-77
2021/04/22 08:11:37;;;;;;;15.98;2.78;;;10.20;62.50;;;;;;5024997;28;20033;-77
2021/04/22 08:14:03;;;;;;;16.10;3.33;;;10.20;63.20;;;;;;5024605;28;20044;-77
2021/04/22 08:16:29;;;;;;;20.27;3.53;;;10.30;64.00;;;;;;5026370;28;20082;-77
2021/04/22 08:18:55;;;;;;;7.85;2.55;;;10.40;61.40;;;;;;5014930;28;20025;-77
2021/04/22 08:21:20;;;;;;;9.98;2.70;;;10.40;60.40;;;;;;5050316;28;20116;-77
2021/04/22 08:23:46;;;;;;;10.95;3.05;;;10.40;60.30;;;;;;5031000;28;20135;-77
2021/04/22 08:26:18;;;;;;;12.25;2.85;;;10.40;60.80;;;;;;5069537;28;20023;-77
2021/04/22 08:28:45;;;;;;;12.30;2.50;;;10.50;62.70;;;;;;5034375;28;20105;-77
2021/04/22 08:31:21;;;;;;;15.05;2.67;;;10.60;62.20;;;;;;5018479;28;20050;-77
2021/04/22 08:33:47;;;;;;;10.32;2.80;;;10.70;60.20;;;;;;5036353;28;20401;-77
2021/04/22 08:36:13;;;;;;;16.58;2.70;;;10.90;60.80;;;;;;5016456;28;20071;-77
2021/04/22 08:38:38;;;;;;;10.30;2.65;;;11.00;60.60;;;;;;5024955;28;20052;-77
2021/04/22 08:41:04;;;;;;;11.93;3.00;;;11.00;60.50;;;;;;5030087;28;20025;-77
2021/04/22 08:43:31;;;;;;;13.38;3.17;;;11.00;60.80;;;;;;5029048;28;20036;-78
2021/04/22 08:45:57;;;;;;;10.25;3.00;;;11.20;60.50;;;;;;5034689;28;20032;-77
2021/04/22 08:48:22;;;;;;;8.13;2.60;;;11.40;60.30;;;;;;5017518;28;20127;-77
2021/04/22 08:50:48;;;;;;;12.68;2.88;;;11.40;60.80;;;;;;5018416;28;20035;-78
2021/04/22 08:53:16;;;;;;;17.80;3.38;;;11.60;62.20;;;;;;5016420;28;20642;-77
2021/04/22 08:55:42;;;;;;;12.38;2.90;;;11.90;57.60;;;;;;5031880;28;20048;-77
2021/04/22 08:58:09;;;;;;;11.27;3.08;;;12.00;59.30;;;;;;5031708;28;20063;-77
2021/04/22 09:00:42;;;;;;;9.18;2.45;;;12.20;56.40;;;;;;5048757;28;20442;-77
2021/04/22 09:03:08;;;;;;;12.25;3.45;;;12.20;59.10;;;;;;5068654;28;20488;-78
2021/04/22 09:05:33;;;;;;;16.50;2.72;;;12.50;57.20;;;;;;5031033;28;20037;-77
2021/04/22 09:08:00;;;;;;;11.60;2.75;;;12.60;55.80;;;;;;5030718;28;20047;-77
2021/04/22 09:10:25;;;;;;;11.55;3.10;;;12.50;56.10;;;;;;5046693;28;20029;-77
2021/04/22 09:13:15;;;;;;;14.48;2.78;;;12.60;59.00;;;;;;5032555;28;20035;-78
2021/04/22 09:15:42;;;;;;;14.05;4.55;;;12.90;56.30;;;;;;5065508;28;20078;-78
2021/04/22 09:18:11;;;;;;;15.25;2.75;;;13.30;55.00;;;;;;5046964;28;20479;-77
2021/04/22 09:20:43;;;;;;;9.50;3.10;;;13.30;55.00;;;;;;5049123;28;20036;-78
2021/04/22 09:23:26;;;;;;;11.77;3.63;;;13.60;57.00;;;;;;5041336;28;20032;-78
2021/04/22 09:25:58;;;;;;;13.90;4.38;;;13.70;55.30;;;;;;5032404;28;20522;-78
2021/04/22 09:28:40;;;;;;;12.63;4.40;;;13.80;53.30;;;;;;5031314;28;20029;-77
2021/04/22 09:31:06;;;;;;;16.10;5.10;;;13.60;50.90;;;;;;5017187;28;20060;-78
2021/04/22 09:33:32;;;;;;;16.23;5.70;;;13.50;50.40;;;;;;5035313;28;20029;-78
2021/04/22 09:36:14;;;;;;;10.18;5.93;;;13.50;50.70;;;;;;5019311;28;20040;-78
2021/04/22 09:38:40;;;;;;;11.38;6.38;;;13.50;52.10;;;;;;5019078;28;20029;-78
2021/04/22 09:41:15;;;;;;;14.10;4.90;;;13.80;50.80;;;;;;5032615;28;20025;-78
2021/04/22 09:43:41;;;;;;;13.40;5.20;;;13.90;49.80;;;;;;5052355;28;20028;-78
2021/04/22 09:46:19;;;;;;;15.13;4.97;;;13.70;51.70;;;;;;5019173;28;20040;-78
2021/04/22 09:48:45;;;;;;;11.15;5.25;;;13.60;52.00;;;;;;5034855;28;20479;-78
2021/04/22 09:51:12;;;;;;;15.35;5.72;;;13.60;52.00;;;;;;5011546;28;20025;-78
2021/04/22 09:53:38;;;;;;;14.65;5.13;;;13.80;51.50;;;;;;5028687;28;20116;-78
2021/04/22 09:56:10;;;;;;;15.32;5.38;;;13.90;49.70;;;;;;5050478;28;20139;-78
2021/04/22 09:58:36;;;;;;;10.88;4.25;;;14.00;50.10;;;;;;5033664;28;20166;-78
2021/04/22 10:01:03;;;;;;;12.10;4.30;;;14.00;50.10;;;;;;5035744;28;20060;-78
2021/04/22 10:03:28;;;;;;;9.60;3.78;;;14.00;50.90;;;;;;5034993;28;20021;-78
2021/04/22 10:05:58;;;;;;;17.08;5.45;;;14.00;49.60;;;;;;5028829;28;20073;-78
2021/04/22 10:08:24;;;;;;;14.27;3.78;;;14.30;48.50;;;;;;5030291;28;20021;-78
2021/04/22 10:11:02;;;;;;;11.95;4.03;;;14.30;48.10;;;;;;5031552;28;20606;-79
2021/04/22 10:13:28;;;;;;;10.00;3.22;;;14.30;49.40;;;;;;5026771;28;20036;-78
2021/04/22 10:15:55;;;;;;;13.25;4.43;;;14.30;51.50;;;;;;5018332;28;20024;-79
2021/04/22 10:18:21;;;;;;;11.30;4.13;;;14.50;51.20;;;;;;5032776;28;20541;-78
2021/04/22 10:20:48;;;;;;;7.95;3.65;;;14.50;49.70;;;;;;5015303;28;20041;-78
2021/04/22 10:23:13;;;;;;;10.90;3.40;;;14.70;47.10;;;;;;5039369;28;20036;-78
2021/04/22 10:25:43;;;;;;;13.85;3.08;;;14.70;49.10;;;;;;5043881;28;20052;-79
2021/04/22 10:28:10;;;;;;;10.48;3.75;;;14.90;51.40;;;;;;5025435;28;20052;-78
2021/04/22 10:30:37;;;;;;;11.57;3.40;;;15.20;50.30;;;;;;5032028;28;20032;-79
2021/04/22 10:33:02;;;;;;;10.13;4.25;;;15.50;51.40;;;;;;5050706;28;20303;-78
2021/04/22 10:35:29;;;;;;;14.98;4.53;;;15.80;50.40;;;;;;5030344;28;20036;-78
2021/04/22 10:37:55;;;;;;;12.60;4.40;;;15.70;47.10;;;;;;5028916;28;20265;-79
2021/04/22 10:40:23;;;;;;;12.10;4.82;;;15.40;47.40;;;;;;5049452;28;20029;-78
2021/04/22 10:42:49;;;;;;;10.60;4.13;;;15.40;47.70;;;;;;5035913;28;20032;-78
2021/04/22 10:45:16;;;;;;;12.43;3.80;;;15.50;47.90;;;;;;5014654;28;20050;-78
2021/04/22 10:47:42;;;;;;;10.43;3.72;;;15.60;49.20;;;;;;5012826;28;20098;-78
2021/04/22 10:50:30;;;;;;;14.63;4.30;;;15.90;49.70;;;;;;5032596;28;20411;-79
2021/04/22 10:52:57;;;;;;;10.02;3.28;;;15.80;46.10;;;;;;5034509;28;20037;-78
2021/04/22 10:55:30;;;;;;;10.82;3.17;;;15.60;46.20;;;;;;5031652;28;20090;-79
2021/04/22 10:58:11;;;;;;;10.05;3.45;;;15.60;45.70;;;;;;5016900;28;20039;-78
2021/04/22 11:00:36;;;;;;;14.35;3.55;;;15.50;44.80;;;;;;5032324;28;20089;-78
2021/04/22 11:03:02;;;;;;;10.95;3.50;;;15.50;47.20;;;;;;5033338;28;20036;-79
2021/04/22 11:05:33;;;;;;;19.05;4.03;;;15.60;47.60;;;;;;5025138;28;20021;-77
2021/04/22 11:08:00;;;;;;;9.85;3.78;;;15.80;47.10;;;;;;5013908;28;20029;-78
2021/04/22 11:10:42;;;;;;;7.38;2.50;;;16.20;45.40;;;;;;5038315;28;20147;-78
2021/04/22 11:13:18;;;;;;;12.65;3.28;;;16.30;48.30;;;;;;5015420;28;20037;-78
2021/04/22 11:15:44;;;;;;;;;;;16.50;47.60;;;;;;5022762;28;20032;-78
2021/04/22 11:18:11;;;;;;;5.95;3.95;;;16.60;47.90;;;;;;5046341;28;20571;-78
2021/04/22 11:20:41;;;;;;;7.20;3.40;;;16.30;44.90;;;;;;5028581;28;20479;-78
2021/04/22 11:23:17;;;;;;;11.77;4.28;;;16.20;45.30;;;;;;5047302;28;20214;-77
2021/04/22 11:25:49;;;;;;;11.70;3.92;;;16.00;43.60;;;;;;5032448;28;20063;-78
2021/04/22 11:28:30;;;;;;;17.15;4.10;;;15.90;44.60;;;;;;5015679;28;20095;-78
2021/04/22 11:31:15;;;;;;;10.80;3.88;;;16.00;44.50;;;;;;5014781;28;20033;-78
2021/04/22 11:33:41;;;;;;;11.52;3.15;;;16.00;44.70;;;;;;5026593;28;20033;-78
2021/04/22 11:36:21;;;;;;;12.52;3.47;;;15.90;44.90;;;;;;5015752;28;20446;-78
2021/04/22 11:38:55;;;;;;;9.98;3.67;;;16.20;46.40;;;;;;5013735;28;20078;-78
2021/04/22 11:41:21;;;;;;;8.50;4.00;;;16.20;45.20;;;;;;5044135;28;20551;-77
2021/04/22 11:43:46;;;;;;;10.32;3.70;;;16.30;45.50;;;;;;5016539;28;20475;-78
2021/04/22 11:46:12;;;;;;;12.48;3.70;;;16.80;46.30;;;;;;5036770;28;20028;-78
2021/04/22 11:48:39;;;;;;;11.02;2.58;;;16.70;41.70;;;;;;5035206;28;20036;-78
2021/04/22 11:51:05;;;;;;;7.80;2.90;;;16.50;41.00;;;;;;5046694;28;20495;-78
2021/04/22 11:53:40;;;;;;;8.00;3.10;;;16.40;41.60;;;;;;5016097;28;20036;-79
2021/04/22 11:56:06;;;;;;;10.65;3.55;;;16.30;41.00;;;;;;5031221;28;20060;-78
2021/04/22 11:58:33;;;;;;;12.35;3.88;;;16.10;40.70;;;;;;5028985;28;20546;-78
2021/04/22 12:01:01;;;;;;;12.93;4.15;;;16.00;41.30;;;;;;5047050;28;20087;-78
2021/04/22 12:03:31;;;;;;;7.72;3.22;;;16.10;43.50;;;;;;5012585;28;20029;-78
2021/04/22 12:05:58;;;;;;;11.55;3.70;;;17.10;44.40;;;;;;5029046;28;20102;-78
2021/04/22 12:08:34;;;;;;;10.93;3.28;;;16.70;43.80;;;;;;5033416;28;20036;-78
2021/04/22 12:10:59;;;;;;;;;;;16.70;42.70;;;;;;5033977;28;20404;-78
2021/04/22 12:13:27;;;;;;;15.27;3.60;;;16.80;41.70;;;;;;5064559;28;19923;-78
2021/04/22 12:15:54;;;;;;;9.40;3.70;;;16.80;43.40;;;;;;5016536;28;20274;-78
2021/04/22 12:18:26;;;;;;;9.70;3.63;;;16.90;41.70;;;;;;5047252;28;20616;-78
2021/04/22 12:20:54;;;;;;;10.63;3.75;;;16.80;41.10;;;;;;5031113;28;20021;-78
2021/04/22 12:23:29;;;;;;;8.13;3.88;;;16.90;41.80;;;;;;5030917;28;20032;-78
2021/04/22 12:25:55;;;;;;;8.18;4.57;;;16.70;40.70;;;;;;5013147;28;20036;-79
2021/04/22 12:28:20;;;;;;;12.80;4.03;;;16.60;42.60;;;;;;5041420;28;20115;-78
2021/04/22 12:30:46;;;;;;;11.95;4.28;;;16.60;42.00;;;;;;5031624;28;20498;-78
2021/04/22 12:33:14;;;;;;;14.27;4.38;;;16.80;40.90;;;;;;5027587;28;20040;-79
2021/04/22 12:35:42;;;;;;;8.05;3.55;;;16.70;42.00;;;;;;5013862;28;20476;-78
2021/04/22 12:38:23;;;;;;;11.07;3.65;;;17.30;43.40;;;;;;5027523;28;20068;-79
2021/04/22 12:41:05;;;;;;;12.20;4.25;;;17.50;43.60;;;;;;5016252;28;20475;-78
2021/04/22 12:43:32;;;;;;;11.32;3.67;;;17.30;41.50;;;;;;5046811;28;20032;-78